Appleton, Minnesota
Current Conditions -  °F | °C
As of 12:34 AM on Monday 26 Jan 2015 (Local Time) from KAQP Reporting Station
Broken Clouds Broken Clouds  
Wind Chill: 23°   Ceiling: 9000
Heat Index: 30°   Visibility: 7mi
Dew Point: 28°   Wind: 8mph
Humidity: 93%   Direction: 170°S
Pressure: 29.85"   Gusts: NA
Location:  45.2°N, 96.02°W
Report Text: KAQP 260634Z AUTO 17007KT 7SM SCT030 BKN090 M01/M02 A2985 RMK AO2
Loading
Personal Weather Stations






























Interactive Weather Map New forecast layout! Learn more

10-Day Weather Forecast

Advertisements
Track Severe Weather on mobile